Time;durP1;ratioP1;P1;durP2;ratioP2;P2;SDS_P1;SDS_P2;PMS_P1;PMS_P2;Temp;Humidity;BMP_temperature;BMP_pressure;BME280_temperature;BME280_humidity;BME280_pressure;Samples;Min_cycle;Max_cycle;Signal;HPM_P1;HPM_P2
2021/12/11 00:01:01;;;;;;;23.55;17.38;;;4.80;99.90;;;;;;5072295;28;20067;-70
2021/12/11 00:03:31;;;;;;;24.40;18.58;;;4.80;99.90;;;;;;5072225;28;20096;-70
2021/12/11 00:06:09;;;;;;;28.25;18.58;;;4.70;99.90;;;;;;5071826;28;20071;-71
2021/12/11 00:08:36;;;;;;;24.40;18.23;;;4.70;99.90;;;;;;5067931;28;20033;-71
2021/12/11 00:11:07;;;;;;;25.25;18.60;;;4.80;99.90;;;;;;5055964;28;20048;-70
2021/12/11 00:13:36;;;;;;;24.65;18.23;;;4.80;99.90;;;;;;5056016;28;20037;-70
2021/12/11 00:16:03;;;;;;;23.40;18.63;;;4.90;99.90;;;;;;5055849;28;20036;-70
2021/12/11 00:18:30;;;;;;;25.35;18.77;;;4.80;99.90;;;;;;5055597;28;20529;-71
2021/12/11 00:21:08;;;;;;;23.23;17.85;;;5.00;99.90;;;;;;5055715;28;20405;-70
2021/12/11 00:23:43;;;;;;;21.70;16.50;;;4.90;99.90;;;;;;5055988;28;20025;-70
2021/12/11 00:26:12;;;;;;;24.60;17.23;;;4.90;99.90;;;;;;5066940;28;20040;-70
2021/12/11 00:28:50;;;;;;;23.45;17.13;;;5.00;99.90;;;;;;5074541;28;20412;-71
2021/12/11 00:31:17;;;;;;;22.95;16.77;;;5.10;99.90;;;;;;5075549;28;20028;-71
2021/12/11 00:33:44;;;;;;;24.10;17.40;;;5.20;99.90;;;;;;5075412;28;20028;-73
2021/12/11 00:36:15;;;;;;;21.90;15.98;;;5.00;99.90;;;;;;5074379;28;20037;-73
2021/12/11 00:38:41;;;;;;;21.30;15.82;;;5.00;99.90;;;;;;5075581;28;20029;-77
2021/12/11 00:41:10;;;;;;;20.10;15.00;;;5.00;99.90;;;;;;5074266;28;20025;-75
2021/12/11 00:43:40;;;;;;;19.48;14.43;;;5.00;99.90;;;;;;5075599;28;20479;-79
2021/12/11 00:46:10;;;;;;;19.33;14.88;;;5.10;99.90;;;;;;5074195;28;20067;-72
2021/12/11 00:48:37;;;;;;;24.55;15.48;;;5.20;99.90;;;;;;5059409;28;20426;-71
2021/12/11 00:51:17;;;;;;;19.92;13.85;;;5.20;99.90;;;;;;5037319;28;20123;-72
2021/12/11 00:53:50;;;;;;;17.73;13.20;;;5.30;99.90;;;;;;5037361;28;20452;-71
2021/12/11 00:56:23;;;;;;;19.42;13.00;;;5.50;99.90;;;;;;5055274;28;20041;-73
2021/12/11 00:58:55;;;;;;;17.98;13.73;;;5.40;99.90;;;;;;5055132;28;20055;-72
2021/12/11 01:01:23;;;;;;;;;;;5.20;99.90;;;;;;5054058;28;20072;-70
2021/12/11 01:03:49;;;;;;;16.00;11.75;;;5.20;99.90;;;;;;5055151;28;19905;-70
2021/12/11 01:06:18;;;;;;;19.42;13.60;;;5.20;99.90;;;;;;5054872;28;20374;-72
2021/12/11 01:08:54;;;;;;;18.60;11.73;;;5.20;99.90;;;;;;5063188;28;20048;-71
2021/12/11 01:11:29;;;;;;;18.25;11.80;;;5.30;99.90;;;;;;5074892;28;20423;-70
2021/12/11 01:14:32;;;;;;;22.00;11.70;;;5.50;99.90;;;;;;5074797;28;20550;-70
2021/12/11 01:17:20;;;;;;;21.30;10.07;;;5.40;99.90;;;;;;5074301;28;20028;-70
2021/12/11 01:19:50;;;;;;;18.52;11.00;;;5.40;99.90;;;;;;5073285;28;20048;-73
2021/12/11 01:22:31;;;;;;;13.48;8.73;;;5.50;99.90;;;;;;5074743;28;20107;-70
2021/12/11 01:25:00;;;;;;;17.08;9.73;;;5.50;99.90;;;;;;5074410;28;20025;-72
2021/12/11 01:27:27;;;;;;;18.42;8.05;;;5.50;99.90;;;;;;5056545;28;20404;-70
2021/12/11 01:29:57;;;;;;;19.60;7.80;;;5.50;99.90;;;;;;5073280;28;20036;-72
2021/12/11 01:32:26;;;;;;;16.20;6.00;;;5.60;99.90;;;;;;5072986;28;20525;-70
2021/12/11 01:34:53;;;;;;;15.63;4.70;;;5.60;99.90;;;;;;5073254;28;20043;-70
2021/12/11 01:37:19;;;;;;;18.80;4.90;;;5.70;99.90;;;;;;5074318;28;20040;-71
2021/12/11 01:39:47;;;;;;;14.93;4.03;;;5.70;99.90;;;;;;5067358;28;20478;-71
2021/12/11 01:42:22;;;;;;;13.75;3.75;;;5.80;99.90;;;;;;5052911;28;20432;-70
2021/12/11 01:44:50;;;;;;;19.35;3.95;;;5.90;99.90;;;;;;5053957;28;20037;-70
2021/12/11 01:47:26;;;;;;;19.73;2.75;;;5.90;99.90;;;;;;5054173;28;20439;-70
2021/12/11 01:49:55;;;;;;;17.55;3.30;;;6.00;99.90;;;;;;5054170;28;20069;-70
2021/12/11 01:52:36;;;;;;;22.50;2.78;;;6.00;99.90;;;;;;5054119;28;20083;-70
2021/12/11 01:55:17;;;;;;;17.67;2.00;;;6.00;99.90;;;;;;5054006;28;20064;-71
2021/12/11 01:57:50;;;;;;;27.08;2.55;;;6.20;99.90;;;;;;5054053;28;20033;-70
2021/12/11 02:00:33;;;;;;;15.82;2.72;;;6.30;99.90;;;;;;5052449;28;20049;-69
2021/12/11 02:03:04;;;;;;;25.25;3.70;;;6.30;99.90;;;;;;5052632;28;20048;-70
2021/12/11 02:05:34;;;;;;;16.40;2.10;;;6.40;99.90;;;;;;5053912;28;20115;-70
2021/12/11 02:08:04;;;;;;;19.92;2.78;;;6.40;99.90;;;;;;5055893;28;20275;-72
2021/12/11 02:10:38;;;;;;;19.00;2.80;;;6.50;99.90;;;;;;5072525;28;20032;-71
2021/12/11 02:13:12;;;;;;;17.52;2.53;;;6.50;99.90;;;;;;5073652;28;20047;-71
2021/12/11 02:15:47;;;;;;;21.90;2.55;;;6.50;99.90;;;;;;5073410;28;20036;-71
2021/12/11 02:18:21;;;;;;;16.58;2.50;;;6.50;99.90;;;;;;5072417;28;20392;-73
2021/12/11 02:21:08;;;;;;;17.70;3.28;;;6.50;99.90;;;;;;5073537;28;20040;-77
2021/12/11 02:23:34;;;;;;;28.73;3.30;;;6.60;99.90;;;;;;5073340;28;20060;-77
2021/12/11 02:26:10;;;;;;;17.20;2.60;;;6.60;99.90;;;;;;5073338;28;20078;-79
2021/12/11 02:28:54;;;;;;;18.15;2.50;;;6.60;99.90;;;;;;5054794;28;20427;-72
2021/12/11 02:31:30;;;;;;;14.50;2.63;;;6.70;99.90;;;;;;5071998;28;20032;-72
2021/12/11 02:34:07;;;;;;;14.82;2.33;;;6.70;99.90;;;;;;5073325;28;20032;-72
2021/12/11 02:36:48;;;;;;;11.38;2.33;;;6.80;99.90;;;;;;5073234;28;20055;-79
2021/12/11 02:39:35;;;;;;;11.00;3.03;;;7.00;99.90;;;;;;5073093;28;20025;-79
2021/12/11 02:42:24;;;;;;;14.50;2.20;;;6.90;99.90;;;;;;5073298;28;20090;-78
2021/12/11 02:45:07;;;;;;;11.27;2.65;;;6.90;99.90;;;;;;5068586;28;20365;-79
2021/12/11 02:47:39;;;;;;;7.90;1.67;;;7.00;99.90;;;;;;5073134;28;20040;-79
2021/12/11 02:50:14;;;;;;;8.82;2.35;;;7.10;99.90;;;;;;5073232;28;20126;-78
2021/12/11 02:53:03;;;;;;;12.52;2.25;;;7.20;99.90;;;;;;5072903;28;20095;-74
2021/12/11 02:55:34;;;;;;;6.28;2.85;;;7.00;99.90;;;;;;5072256;28;20045;-71
2021/12/11 02:58:16;;;;;;;10.68;2.97;;;7.00;99.90;;;;;;5072734;28;20067;-72
2021/12/11 03:00:51;;;;;;;7.82;2.75;;;7.00;99.90;;;;;;5072889;28;20040;-71
2021/12/11 03:03:28;;;;;;;7.50;3.28;;;6.90;99.90;;;;;;5071602;28;20384;-71
2021/12/11 03:06:03;;;;;;;11.15;3.60;;;6.80;99.90;;;;;;5071737;28;20040;-72
2021/12/11 03:08:29;;;;;;;11.30;3.80;;;6.80;99.90;;;;;;5066506;28;20021;-71
2021/12/11 03:11:00;;;;;;;10.73;3.30;;;6.80;99.90;;;;;;5051581;28;20456;-71
2021/12/11 03:13:29;;;;;;;13.02;4.40;;;6.70;99.90;;;;;;5052451;28;20099;-72
2021/12/11 03:15:55;;;;;;;9.35;4.28;;;6.50;99.90;;;;;;5052863;28;20078;-71
2021/12/11 03:18:21;;;;;;;11.77;3.95;;;6.50;99.90;;;;;;5052635;28;20079;-77
2021/12/11 03:20:48;;;;;;;9.93;3.53;;;6.40;99.90;;;;;;5062024;28;20032;-79
2021/12/11 03:23:14;;;;;;;12.77;3.70;;;6.40;99.90;;;;;;5072664;28;20064;-78
2021/12/11 03:25:41;;;;;;;11.45;3.80;;;6.40;99.90;;;;;;5071175;28;20024;-77
2021/12/11 03:28:10;;;;;;;13.90;4.32;;;6.30;99.90;;;;;;5072508;28;20024;-71
2021/12/11 03:30:44;;;;;;;15.57;4.40;;;6.30;99.90;;;;;;5072630;28;20024;-78
2021/12/11 03:33:16;;;;;;;11.32;4.38;;;6.50;99.90;;;;;;5072816;28;20465;-70
2021/12/11 03:35:43;;;;;;;10.25;4.15;;;6.50;99.90;;;;;;5071541;28;20025;-71
2021/12/11 03:38:10;;;;;;;17.80;4.20;;;6.40;99.90;;;;;;5072666;28;20461;-75
2021/12/11 03:40:36;;;;;;;16.95;5.47;;;6.30;99.90;;;;;;5071696;28;20044;-71
2021/12/11 03:43:06;;;;;;;14.48;4.65;;;6.40;99.90;;;;;;5076560;28;20025;-78
2021/12/11 03:45:33;;;;;;;19.65;5.43;;;6.40;99.90;;;;;;5076512;28;20064;-79
2021/12/11 03:48:14;;;;;;;17.25;4.95;;;6.50;99.90;;;;;;5076646;28;20016;-72
2021/12/11 03:50:41;;;;;;;15.52;5.63;;;6.70;99.90;;;;;;5076911;28;20032;-72
2021/12/11 03:53:08;;;;;;;15.40;5.53;;;6.80;99.90;;;;;;5075232;28;20041;-73
2021/12/11 03:55:44;;;;;;;18.27;5.40;;;6.70;99.90;;;;;;5076255;28;20056;-72
2021/12/11 03:58:10;;;;;;;19.00;5.38;;;6.70;99.90;;;;;;5076313;28;20115;-72
2021/12/11 04:00:44;;;;;;;17.25;5.53;;;6.60;99.90;;;;;;5075234;28;20032;-72
2021/12/11 04:03:14;;;;;;;22.50;5.75;;;6.40;99.90;;;;;;5076542;28;20028;-72
2021/12/11 04:05:44;;;;;;;19.23;4.97;;;6.30;99.90;;;;;;5076350;28;20040;-73
2021/12/11 04:08:13;;;;;;;18.52;4.57;;;6.20;99.90;;;;;;5072956;28;20120;-72
2021/12/11 04:10:39;;;;;;;17.67;4.85;;;6.20;99.90;;;;;;5056104;28;20021;-72
2021/12/11 04:13:08;;;;;;;16.17;4.20;;;6.20;99.90;;;;;;5055370;28;20108;-72
2021/12/11 04:15:36;;;;;;;23.25;4.90;;;6.10;99.90;;;;;;5056070;28;20026;-72
2021/12/11 04:18:02;;;;;;;11.75;4.30;;;6.10;99.90;;;;;;5056118;28;20067;-73
2021/12/11 04:20:30;;;;;;;17.17;4.60;;;6.00;99.90;;;;;;5055927;28;20041;-74
2021/12/11 04:22:56;;;;;;;13.13;5.10;;;6.00;99.90;;;;;;5054897;28;20116;-73
2021/12/11 04:25:25;;;;;;;20.27;5.00;;;6.10;99.90;;;;;;5060285;28;20020;-73
2021/12/11 04:27:53;;;;;;;14.13;4.28;;;6.00;99.90;;;;;;5076428;28;20052;-72
2021/12/11 04:30:21;;;;;;;21.25;4.40;;;6.00;99.90;;;;;;5074693;28;20170;-73
2021/12/11 04:32:49;;;;;;;20.05;5.35;;;6.10;99.90;;;;;;5078828;28;20027;-78
2021/12/11 04:35:16;;;;;;;17.35;3.83;;;6.10;99.90;;;;;;5076657;28;20465;-80
2021/12/11 04:37:43;;;;;;;17.35;4.30;;;6.10;99.90;;;;;;5076966;28;20070;-78
2021/12/11 04:40:23;;;;;;;23.25;4.63;;;6.10;99.90;;;;;;5075160;28;20044;-79
2021/12/11 04:45:23;;;;;;;30.15;5.35;;;6.00;99.90;;;;;;5076275;28;20043;-79
2021/12/11 04:48:15;;;;;;;18.35;3.90;;;6.00;99.90;;;;;;5074990;28;20021;-77
2021/12/11 04:51:06;;;;;;;20.55;3.47;;;5.90;99.90;;;;;;5075676;28;20070;-79
2021/12/11 05:04:11;;;;;;;30.25;3.20;;;5.80;99.90;;;;;;5075024;28;20074;-79
2021/12/11 05:09:36;;;;;;;25.52;3.65;;;5.70;99.90;;;;;;5060006;28;20033;-77
2021/12/11 05:12:19;;;;;;;26.98;3.38;;;5.70;99.90;;;;;;5055004;28;20480;-78
2021/12/11 05:14:46;;;;;;;37.50;4.93;;;5.80;99.90;;;;;;5054812;28;20110;-78
2021/12/11 05:17:13;;;;;;;31.05;4.35;;;5.80;99.90;;;;;;5054773;28;20021;-79
2021/12/11 05:19:40;;;;;;;31.17;3.58;;;5.80;99.90;;;;;;5053358;28;20090;-78
2021/12/11 05:22:08;;;;;;;31.60;3.40;;;5.70;99.90;;;;;;5073138;28;20035;-78
2021/12/11 05:24:36;;;;;;;29.00;3.72;;;5.80;99.90;;;;;;5073586;28;20032;-79
2021/12/11 05:27:03;;;;;;;27.60;3.65;;;5.80;99.90;;;;;;5073160;28;20469;-79
2021/12/11 05:29:30;;;;;;;20.63;3.03;;;5.70;99.90;;;;;;5056722;28;20036;-78
2021/12/11 05:31:56;;;;;;;30.33;3.67;;;5.70;99.90;;;;;;5074685;28;20032;-76
2021/12/11 05:34:22;;;;;;;32.53;4.72;;;5.70;99.90;;;;;;5074389;28;20043;-79
2021/12/11 05:36:49;;;;;;;28.35;3.45;;;5.70;99.90;;;;;;5074113;28;20028;-79
2021/12/11 05:39:19;;;;;;;29.58;3.50;;;5.70;99.90;;;;;;5074336;28;20113;-79
2021/12/11 05:41:46;;;;;;;28.35;3.97;;;5.60;99.90;;;;;;5073241;28;20548;-79
2021/12/11 05:44:12;;;;;;;23.08;3.55;;;5.70;99.90;;;;;;5074108;28;20067;-78
2021/12/11 05:46:39;;;;;;;39.13;5.35;;;5.70;99.90;;;;;;5072982;28;20028;-78
2021/12/11 05:49:06;;;;;;;29.67;3.40;;;5.70;99.90;;;;;;5074166;28;20020;-75
2021/12/11 05:51:38;;;;;;;35.00;5.88;;;5.60;99.90;;;;;;5073698;28;20020;-79
2021/12/11 05:54:10;;;;;;;41.25;4.60;;;5.60;99.90;;;;;;5074244;28;20100;-78
2021/12/11 05:56:38;;;;;;;26.38;3.65;;;5.50;99.90;;;;;;5074259;28;20077;-78
2021/12/11 05:59:07;;;;;;;25.63;3.70;;;5.50;99.90;;;;;;5074085;28;20033;-79
2021/12/11 06:01:40;;;;;;;23.60;4.18;;;5.40;99.90;;;;;;5073634;28;20380;-79
2021/12/11 06:04:10;;;;;;;23.42;3.17;;;5.50;99.90;;;;;;5073230;28;20035;-79
2021/12/11 06:06:37;;;;;;;28.38;3.42;;;5.40;99.90;;;;;;5073525;28;20481;-79
2021/12/11 06:09:05;;;;;;;29.85;3.47;;;5.40;99.90;;;;;;5062957;28;20392;-79
2021/12/11 06:11:31;;;;;;;35.28;3.88;;;5.40;99.90;;;;;;5053864;28;20362;-79
2021/12/11 06:13:57;;;;;;;37.65;3.90;;;5.40;99.90;;;;;;5053656;28;20418;-78
2021/12/11 06:16:23;;;;;;;33.28;4.45;;;5.30;99.90;;;;;;5053829;28;20087;-79
2021/12/11 06:18:49;;;;;;;22.95;3.80;;;5.30;99.90;;;;;;5053421;28;20029;-79
2021/12/11 06:21:16;;;;;;;23.60;3.72;;;5.30;99.90;;;;;;5053417;28;20036;-79
2021/12/11 06:23:42;;;;;;;26.77;3.63;;;5.40;99.90;;;;;;5053422;28;20071;-79
2021/12/11 06:26:08;;;;;;;28.05;4.32;;;5.40;99.90;;;;;;5063316;28;20028;-79
2021/12/11 06:28:34;;;;;;;23.45;3.85;;;5.40;99.90;;;;;;5072020;28;20477;-79
2021/12/11 06:31:02;;;;;;;24.77;3.58;;;5.40;99.90;;;;;;5073506;28;20458;-79
2021/12/11 06:33:30;;;;;;;25.55;4.38;;;5.30;99.90;;;;;;5071945;28;20418;-78
2021/12/11 06:36:01;;;;;;;21.95;3.67;;;5.30;99.90;;;;;;5073296;28;20036;-79
2021/12/11 06:38:31;;;;;;;41.07;3.60;;;5.30;99.90;;;;;;5072946;28;20033;-79
2021/12/11 06:40:58;;;;;;;35.63;4.28;;;5.30;99.90;;;;;;5071967;28;20310;-79
2021/12/11 06:43:24;;;;;;;24.52;5.28;;;5.20;99.90;;;;;;5073054;28;20036;-78
2021/12/11 06:45:51;;;;;;;23.20;3.10;;;5.30;99.90;;;;;;5073269;28;20049;-78
2021/12/11 06:48:17;;;;;;;27.58;4.38;;;5.30;99.90;;;;;;5073173;28;20072;-79
2021/12/11 06:50:45;;;;;;;26.23;3.45;;;5.20;99.90;;;;;;5071907;28;20052;-79
2021/12/11 06:53:28;;;;;;;31.10;4.15;;;5.20;99.90;;;;;;5072864;28;20025;-79
2021/12/11 06:55:54;;;;;;;18.25;3.55;;;5.20;99.90;;;;;;5071940;28;20024;-79
2021/12/11 06:58:20;;;;;;;28.80;4.30;;;5.20;99.90;;;;;;5072897;28;20382;-79
2021/12/11 07:00:46;;;;;;;19.92;3.25;;;5.20;99.90;;;;;;5072957;28;20135;-79
2021/12/11 07:03:12;;;;;;;23.20;3.58;;;5.20;99.90;;;;;;5071515;28;20384;-79
2021/12/11 07:05:37;;;;;;;22.52;3.83;;;5.10;99.90;;;;;;5072680;28;20473;-78
2021/12/11 07:08:06;;;;;;;34.08;4.13;;;5.10;99.90;;;;;;5070112;28;20029;-79
2021/12/11 07:10:33;;;;;;;28.65;4.18;;;5.00;99.90;;;;;;5051581;28;20029;-79
2021/12/11 07:12:59;;;;;;;24.10;4.32;;;5.10;99.90;;;;;;5052836;28;20025;-78
2021/12/11 07:15:25;;;;;;;22.08;4.97;;;4.80;99.90;;;;;;5052585;28;20112;-76
2021/12/11 07:17:50;;;;;;;31.40;4.80;;;4.60;99.90;;;;;;5052782;28;20128;-79
2021/12/11 07:20:17;;;;;;;30.38;3.97;;;4.60;99.90;;;;;;5052180;28;20049;-77
2021/12/11 07:22:44;;;;;;;27.75;5.45;;;4.50;99.90;;;;;;5052739;28;20077;-78
2021/12/11 07:25:38;;;;;;;19.00;4.20;;;4.50;99.90;;;;;;5071012;28;20032;-78
2021/12/11 07:28:07;;;;;;;27.48;4.57;;;4.60;99.90;;;;;;5070692;28;20484;-78
2021/12/11 07:30:34;;;;;;;31.17;6.80;;;4.50;99.90;;;;;;5072188;28;20066;-78
2021/12/11 07:33:04;;;;;;;26.20;5.93;;;4.50;99.90;;;;;;5072317;28;20461;-78
2021/12/11 07:35:32;;;;;;;22.08;6.10;;;4.50;99.90;;;;;;5072567;28;20064;-78
2021/12/11 07:37:58;;;;;;;33.92;6.70;;;4.50;99.90;;;;;;5072496;28;20067;-79
2021/12/11 07:40:32;;;;;;;29.05;6.05;;;4.50;99.90;;;;;;5070703;28;20531;-79
2021/12/11 07:42:59;;;;;;;34.53;7.25;;;4.40;99.90;;;;;;5072261;28;20033;-78
2021/12/11 07:45:26;;;;;;;27.83;6.75;;;4.40;99.90;;;;;;5072477;28;20035;-79
2021/12/11 07:47:52;;;;;;;28.95;6.88;;;4.50;99.90;;;;;;5072240;28;20029;-79
2021/12/11 07:50:21;;;;;;;28.17;6.63;;;4.40;99.90;;;;;;5071352;28;20396;-79
2021/12/11 07:52:46;;;;;;;28.15;5.32;;;4.50;99.90;;;;;;5072100;28;20066;-75
2021/12/11 07:55:15;;;;;;;32.70;6.90;;;4.50;99.90;;;;;;5054474;28;20021;-79
2021/12/11 07:57:41;;;;;;;28.73;6.60;;;4.50;99.90;;;;;;5072310;28;20035;-77
2021/12/11 08:00:11;;;;;;;34.72;5.78;;;4.50;99.90;;;;;;5071768;28;20037;-80
2021/12/11 08:02:39;;;;;;;23.98;6.15;;;4.50;99.90;;;;;;5071944;28;20024;-79
2021/12/11 08:05:06;;;;;;;27.42;4.95;;;4.70;99.90;;;;;;5071030;28;20119;-78
2021/12/11 08:07:32;;;;;;;19.77;4.55;;;4.70;99.90;;;;;;5072248;28;20063;-79
2021/12/11 08:09:58;;;;;;;23.30;5.30;;;4.60;99.90;;;;;;5053799;28;20033;-79
2021/12/11 08:12:24;;;;;;;27.38;5.60;;;4.70;99.90;;;;;;5052104;28;20469;-77
2021/12/11 08:14:50;;;;;;;33.88;6.90;;;4.80;99.90;;;;;;5050607;28;20029;-77
2021/12/11 08:17:20;;;;;;;23.92;5.03;;;5.00;99.90;;;;;;5050175;28;20033;-76
2021/12/11 08:19:45;;;;;;;27.40;5.65;;;4.90;99.90;;;;;;5050115;28;20546;-78
2021/12/11 08:22:12;;;;;;;22.25;4.75;;;4.70;99.90;;;;;;5052298;28;20108;-77
2021/12/11 08:24:39;;;;;;;25.52;6.22;;;4.80;99.90;;;;;;5051749;28;20468;-78
2021/12/11 08:27:15;;;;;;;23.35;4.95;;;4.70;99.90;;;;;;5067292;28;20489;-77
2021/12/11 08:29:45;;;;;;;38.40;7.82;;;4.60;99.90;;;;;;5075240;28;20029;-76
2021/12/11 08:32:11;;;;;;;20.95;5.97;;;4.50;99.90;;;;;;5074049;28;20052;-78
2021/12/11 08:34:37;;;;;;;34.25;6.40;;;4.40;99.90;;;;;;5075327;28;20071;-78
2021/12/11 08:37:06;;;;;;;30.25;4.70;;;4.50;99.90;;;;;;5075759;28;20085;-79
2021/12/11 08:39:32;;;;;;;32.08;5.57;;;4.60;99.90;;;;;;5072560;28;20028;-78
2021/12/11 08:41:59;;;;;;;22.85;5.90;;;4.50;99.90;;;;;;5060154;28;20037;-79
2021/12/11 08:44:25;;;;;;;25.73;6.43;;;4.60;99.90;;;;;;5056119;28;20107;-79
2021/12/11 08:46:59;;;;;;;24.23;5.07;;;4.60;99.90;;;;;;5055536;28;20363;-80
2021/12/11 08:49:29;;;;;;;21.98;5.05;;;4.80;99.90;;;;;;5056146;28;20386;-79
2021/12/11 08:52:03;;;;;;;27.30;6.28;;;4.70;99.90;;;;;;5055487;28;20093;-79
2021/12/11 08:54:30;;;;;;;22.88;4.45;;;4.80;99.90;;;;;;5057175;28;20119;-73
2021/12/11 08:56:59;;;;;;;26.48;5.90;;;4.80;99.90;;;;;;5085957;28;20100;-77
2021/12/11 08:59:27;;;;;;;25.48;4.70;;;4.90;99.90;;;;;;5076194;28;20037;-78
2021/12/11 09:02:15;;;;;;;39.38;6.15;;;5.10;99.90;;;;;;5075774;28;20035;-78
2021/12/11 09:04:48;;;;;;;18.85;4.43;;;5.30;99.90;;;;;;5077811;28;20036;-71
2021/12/11 09:07:20;;;;;;;20.73;4.28;;;5.40;99.90;;;;;;5075575;28;20454;-77
2021/12/11 09:09:54;;;;;;;19.17;4.93;;;5.50;99.90;;;;;;5058464;28;20075;-74
2021/12/11 09:12:29;;;;;;;24.05;5.18;;;5.80;99.90;;;;;;5053454;28;20402;-71
2021/12/11 09:15:00;;;;;;;20.35;4.55;;;5.80;99.90;;;;;;5053383;28;20029;-71
2021/12/11 09:17:35;;;;;;;26.40;6.82;;;6.00;99.90;;;;;;5053431;28;20045;-71
2021/12/11 09:20:10;;;;;;;19.25;4.22;;;6.10;99.90;;;;;;5054936;28;20182;-78
2021/12/11 09:23:18;;;;;;;19.30;4.05;;;6.30;99.90;;;;;;5054694;28;20021;-72
2021/12/11 09:25:51;;;;;;;18.08;3.42;;;6.20;99.90;;;;;;5070176;28;20044;-72
2021/12/11 09:28:44;;;;;;;23.67;4.25;;;6.40;99.90;;;;;;5074652;28;20032;-71
2021/12/11 09:31:19;;;;;;;23.95;4.75;;;6.60;99.90;;;;;;5074527;28;20111;-71
2021/12/11 09:34:04;;;;;;;22.73;5.32;;;6.40;99.90;;;;;;5074918;28;20442;-72
2021/12/11 09:36:37;;;;;;;23.08;5.57;;;6.40;99.90;;;;;;5074574;28;20511;-71
2021/12/11 09:39:13;;;;;;;26.45;6.22;;;6.60;99.90;;;;;;5074031;28;20492;-72
2021/12/11 09:41:39;;;;;;;27.15;6.18;;;7.00;99.90;;;;;;5072795;28;20047;-73
2021/12/11 09:44:12;;;;;;;22.10;5.80;;;7.20;99.90;;;;;;5073987;28;20025;-71
2021/12/11 09:46:42;;;;;;;30.30;6.57;;;7.40;99.90;;;;;;5072975;28;20499;-71
2021/12/11 09:49:12;;;;;;;30.50;6.95;;;7.40;99.90;;;;;;5073973;28;20033;-71
2021/12/11 09:51:43;;;;;;;19.45;5.85;;;7.30;99.90;;;;;;5072838;28;20059;-71
2021/12/11 09:54:15;;;;;;;30.50;6.47;;;7.10;99.90;;;;;;5062399;28;20435;-70
2021/12/11 09:56:50;;;;;;;32.60;6.57;;;7.00;99.90;;;;;;5071226;28;20067;-72
2021/12/11 09:59:19;;;;;;;22.10;5.50;;;6.80;99.90;;;;;;5071664;28;20039;-73
2021/12/11 10:01:50;;;;;;;26.05;4.97;;;6.60;99.90;;;;;;5070738;28;20104;-71
2021/12/11 10:04:34;;;;;;;22.92;5.30;;;6.60;99.90;;;;;;5073930;28;20446;-78
2021/12/11 10:09:45;;;;;;;25.80;5.60;;;6.80;99.90;;;;;;5073624;28;20107;-78
2021/12/11 10:12:37;;;;;;;29.80;5.18;;;7.00;99.90;;;;;;5060152;28;20041;-78
2021/12/11 10:15:13;;;;;;;25.95;5.00;;;7.30;99.90;;;;;;5053694;28;20033;-78
2021/12/11 10:17:45;;;;;;;19.83;5.30;;;7.40;99.90;;;;;;5053688;28;20036;-78
2021/12/11 10:20:27;;;;;;;23.50;5.63;;;7.50;99.90;;;;;;5053460;28;20049;-78
2021/12/11 10:22:54;;;;;;;21.50;4.88;;;7.90;99.90;;;;;;5052599;28;20469;-78
2021/12/11 10:25:25;;;;;;;18.77;4.18;;;8.10;99.90;;;;;;5057903;28;20033;-78
2021/12/11 10:27:51;;;;;;;19.27;4.50;;;8.60;99.90;;;;;;5072843;28;20033;-78
2021/12/11 10:30:23;;;;;;;27.98;5.43;;;8.70;99.90;;;;;;5071087;28;20154;-77
2021/12/11 10:32:50;;;;;;;20.90;5.38;;;8.60;99.90;;;;;;5071519;28;20035;-78
2021/12/11 10:35:24;;;;;;;18.50;3.78;;;9.10;99.90;;;;;;5072084;28;20495;-77
2021/12/11 10:37:50;;;;;;;18.15;3.92;;;9.10;99.90;;;;;;5073100;28;20028;-78
2021/12/11 10:40:24;;;;;;;20.50;4.38;;;8.70;99.90;;;;;;5073232;28;20048;-78
2021/12/11 10:42:56;;;;;;;19.02;4.38;;;9.00;99.90;;;;;;5070729;28;20035;-78
2021/12/11 10:45:26;;;;;;;23.27;4.60;;;9.10;99.90;;;;;;5069284;28;20098;-78
2021/12/11 10:47:56;;;;;;;21.27;4.00;;;9.10;99.90;;;;;;5053089;28;20038;-78
2021/12/11 10:50:25;;;;;;;23.65;4.97;;;9.30;99.90;;;;;;5052669;28;20041;-77
2021/12/11 10:52:51;;;;;;;16.35;4.50;;;9.60;99.90;;;;;;5055123;28;20036;-78
2021/12/11 10:55:20;;;;;;;19.00;4.50;;;9.70;99.90;;;;;;5057462;28;20024;-78
2021/12/11 10:57:46;;;;;;;11.30;4.07;;;9.90;99.90;;;;;;5051245;28;20033;-75
2021/12/11 11:00:27;;;;;;;21.00;4.57;;;9.80;99.90;;;;;;5061654;28;20507;-78
2021/12/11 11:02:53;;;;;;;19.48;4.22;;;10.10;99.90;;;;;;5057023;28;20043;-77
2021/12/11 11:05:23;;;;;;;20.15;5.05;;;10.00;99.90;;;;;;5053404;28;20438;-78
2021/12/11 11:07:49;;;;;;;25.20;4.50;;;10.10;99.90;;;;;;5052939;28;20025;-77
2021/12/11 11:10:20;;;;;;;25.13;4.75;;;10.20;99.90;;;;;;5072559;28;20496;-77
2021/12/11 11:12:47;;;;;;;14.73;3.45;;;10.50;99.90;;;;;;5072510;28;20384;-75
2021/12/11 11:15:21;;;;;;;19.25;4.22;;;10.30;99.90;;;;;;5062100;28;20479;-78
2021/12/11 11:17:46;;;;;;;24.52;5.55;;;10.40;99.90;;;;;;5052792;28;20070;-75
2021/12/11 11:20:19;;;;;;;14.75;4.00;;;10.70;99.90;;;;;;5058085;28;20735;-76
2021/12/11 11:22:46;;;;;;;23.33;4.68;;;10.90;99.90;;;;;;5058085;28;20029;-75
2021/12/11 11:25:23;;;;;;;24.13;4.10;;;10.60;99.90;;;;;;5053087;28;20440;-76
2021/12/11 11:27:56;;;;;;;22.95;4.07;;;11.10;99.90;;;;;;5071525;28;20044;-76
2021/12/11 11:30:28;;;;;;;18.17;4.25;;;10.20;99.90;;;;;;5072565;28;20029;-78
2021/12/11 11:32:55;;;;;;;25.60;4.28;;;9.50;99.90;;;;;;5072579;28;20063;-76
2021/12/11 11:35:25;;;;;;;19.58;4.50;;;9.50;99.90;;;;;;5072597;28;20024;-76
2021/12/11 11:37:55;;;;;;;22.13;5.65;;;9.80;99.90;;;;;;5072690;28;20036;-75
2021/12/11 11:40:26;;;;;;;30.25;5.15;;;9.90;99.90;;;;;;5072491;28;20082;-76
2021/12/11 11:42:52;;;;;;;17.85;3.90;;;10.30;99.90;;;;;;5071265;28;20510;-76
2021/12/11 11:45:19;;;;;;;16.73;4.68;;;10.00;99.90;;;;;;5071216;28;20369;-76
2021/12/11 11:47:46;;;;;;;19.60;4.90;;;9.60;99.90;;;;;;5072408;28;20288;-78
2021/12/11 11:50:20;;;;;;;23.65;5.35;;;9.00;99.90;;;;;;5072340;28;20037;-76
2021/12/11 11:52:47;;;;;;;23.83;5.38;;;8.80;99.90;;;;;;5054551;28;20040;-76
2021/12/11 11:55:18;;;;;;;26.70;8.27;;;8.90;99.90;;;;;;5071963;28;20029;-78
2021/12/11 11:57:48;;;;;;;20.42;5.28;;;9.00;99.90;;;;;;5072543;28;20025;-78
2021/12/11 12:00:31;;;;;;;25.05;7.45;;;8.60;99.90;;;;;;5071170;28;20036;-78
2021/12/11 12:02:57;;;;;;;19.05;5.63;;;8.50;99.90;;;;;;5073324;28;20500;-78
2021/12/11 12:05:25;;;;;;;16.70;5.05;;;8.50;99.90;;;;;;5076022;28;20071;-77
2021/12/11 12:07:51;;;;;;;25.60;6.28;;;8.30;99.90;;;;;;5075237;28;20063;-77
2021/12/11 12:10:21;;;;;;;24.30;5.68;;;8.50;99.90;;;;;;5055711;28;20083;-78
2021/12/11 12:12:48;;;;;;;20.73;5.00;;;9.40;99.90;;;;;;5056005;28;20039;-76
2021/12/11 12:15:19;;;;;;;26.40;5.88;;;10.90;99.90;;;;;;5037961;28;20531;-77
2021/12/11 12:17:45;;;;;;;17.88;4.53;;;10.80;99.90;;;;;;5055976;28;20412;-77
2021/12/11 12:20:14;;;;;;;20.45;4.55;;;11.00;99.90;;;;;;5055544;28;20045;-78
2021/12/11 12:22:42;;;;;;;22.83;5.68;;;11.00;99.90;;;;;;5055323;28;20458;-77
2021/12/11 12:25:09;;;;;;;18.05;5.10;;;11.60;99.90;;;;;;5058308;28;20047;-77
2021/12/11 12:27:36;;;;;;;18.10;4.20;;;12.20;99.90;;;;;;5075202;28;20021;-77
2021/12/11 12:30:08;;;;;;;17.13;4.30;;;11.90;99.90;;;;;;5075607;28;20402;-76
2021/12/11 12:32:36;;;;;;;17.27;4.70;;;11.40;99.90;;;;;;5075596;28;20060;-76
2021/12/11 12:35:08;;;;;;;13.80;4.28;;;11.10;99.90;;;;;;5075584;28;20051;-76
2021/12/11 12:37:34;;;;;;;;;;;10.80;99.90;;;;;;5074692;28;20039;-77
2021/12/11 12:40:10;;;;;;;19.88;4.22;;;10.60;99.90;;;;;;5074260;28;19916;-76
2021/12/11 12:42:50;;;;;;;28.38;4.88;;;10.80;99.90;;;;;;5075495;28;20028;-77
2021/12/11 12:45:18;;;;;;;20.08;4.97;;;11.00;99.90;;;;;;5075462;28;20032;-78
2021/12/11 12:47:52;;;;;;;22.25;4.53;;;10.70;99.90;;;;;;5074167;28;20090;-78
2021/12/11 12:50:38;;;;;;;21.88;4.80;;;10.40;99.90;;;;;;5075881;28;20380;-77
2021/12/11 12:53:04;;;;;;;20.88;4.13;;;10.40;99.90;;;;;;5074033;28;20036;-77
2021/12/11 12:55:40;;;;;;;20.40;4.47;;;10.60;99.90;;;;;;5074707;28;20330;-76
2021/12/11 12:58:14;;;;;;;13.15;4.45;;;10.80;99.90;;;;;;5073976;28;20095;-76
2021/12/11 13:00:50;;;;;;;20.73;4.03;;;10.40;99.90;;;;;;5073919;28;20045;-76
2021/12/11 13:03:25;;;;;;;11.88;3.53;;;10.30;99.90;;;;;;5075202;28;20473;-76
2021/12/11 13:05:56;;;;;;;19.35;4.32;;;9.70;99.90;;;;;;5074888;28;20127;-75
2021/12/11 13:08:51;;;;;;;14.70;3.95;;;9.40;99.90;;;;;;5068416;28;20079;-77
2021/12/11 13:11:36;;;;;;;22.85;4.85;;;9.20;99.90;;;;;;5054567;28;20037;-76
2021/12/11 13:14:04;;;;;;;14.27;4.13;;;9.10;99.90;;;;;;5053271;28;20037;-76
2021/12/11 13:16:35;;;;;;;20.08;3.65;;;9.00;99.90;;;;;;5053478;28;20063;-77
2021/12/11 13:19:10;;;;;;;11.07;3.92;;;8.70;99.90;;;;;;5054635;28;20041;-77
2021/12/11 13:21:41;;;;;;;21.85;5.53;;;8.70;99.90;;;;;;5054394;28;20052;-76
2021/12/11 13:24:09;;;;;;;22.80;4.07;;;8.80;99.90;;;;;;5054437;28;20385;-76